createdAt,value
2022-09-13T00:00:43.878Z,10.60
2022-09-13T00:03:12.535Z,10.60
2022-09-13T00:05:39.643Z,10.50
2022-09-13T00:08:07.413Z,10.70
2022-09-13T00:10:36.026Z,10.80
2022-09-13T00:13:02.757Z,10.80
2022-09-13T00:15:30.070Z,10.60
2022-09-13T00:17:56.851Z,10.50
2022-09-13T00:20:24.106Z,10.50
2022-09-13T00:22:51.258Z,10.40
2022-09-13T00:25:18.259Z,10.60
2022-09-13T00:27:45.124Z,10.60
2022-09-13T00:30:12.799Z,10.60
2022-09-13T00:32:39.776Z,10.50
2022-09-13T00:35:07.290Z,10.50
2022-09-13T00:37:34.417Z,10.40
2022-09-13T00:40:01.622Z,10.30
2022-09-13T00:42:32.604Z,10.30
2022-09-13T00:45:15.868Z,10.50
2022-09-13T00:47:42.506Z,10.60
2022-09-13T00:50:14.788Z,10.50
2022-09-13T00:52:46.862Z,10.30
2022-09-13T00:55:34.992Z,10.30
2022-09-13T00:58:08.833Z,10.20
2022-09-13T01:00:36.333Z,10.30
2022-09-13T01:03:08.796Z,10.20
2022-09-13T01:05:42.542Z,10.30
2022-09-13T01:08:18.071Z,10.30
2022-09-13T01:10:45.266Z,10.50
2022-09-13T01:13:20.061Z,10.40
2022-09-13T01:15:47.797Z,10.40
2022-09-13T01:18:15.481Z,10.40
2022-09-13T01:21:12.568Z,10.30
2022-09-13T01:23:42.273Z,10.20
2022-09-13T01:26:52.710Z,10.30
2022-09-13T01:29:38.211Z,10.40
2022-09-13T01:32:36.005Z,10.50
2022-09-13T01:35:27.797Z,10.60
2022-09-13T01:38:35.229Z,10.40
2022-09-13T01:41:04.659Z,10.40
2022-09-13T01:43:56.282Z,10.40
2022-09-13T01:46:32.054Z,10.40
2022-09-13T01:49:20.041Z,10.40
2022-09-13T01:51:50.645Z,10.40
2022-09-13T01:54:36.630Z,10.30
2022-09-13T01:57:14.731Z,10.40
2022-09-13T01:59:49.884Z,10.40
2022-09-13T02:02:28.394Z,10.40
2022-09-13T02:05:04.545Z,10.30
2022-09-13T02:07:38.114Z,10.40
2022-09-13T02:10:16.496Z,10.40
2022-09-13T02:12:45.505Z,10.40
2022-09-13T02:15:18.523Z,10.50
2022-09-13T02:17:55.294Z,10.40
2022-09-13T02:20:26.670Z,10.50
2022-09-13T02:22:57.932Z,10.40
2022-09-13T02:25:27.895Z,10.30
2022-09-13T02:27:59.851Z,10.10
2022-09-13T02:30:33.336Z,10.20
2022-09-13T02:33:36.057Z,10.20
2022-09-13T02:36:12.022Z,10.20
2022-09-13T02:38:48.984Z,10.30
2022-09-13T02:41:30.314Z,10.40
2022-09-13T02:44:22.529Z,10.50
2022-09-13T02:47:18.775Z,10.50
2022-09-13T02:49:53.294Z,10.60
2022-09-13T02:52:44.055Z,10.50
2022-09-13T02:55:30.993Z,10.20
2022-09-13T02:58:03.058Z,9.90
2022-09-13T03:00:30.024Z,9.90
2022-09-13T03:02:59.924Z,10.10
2022-09-13T03:05:26.612Z,10.20
2022-09-13T03:07:53.823Z,10.20
2022-09-13T03:10:24.389Z,10.20
2022-09-13T03:13:29.061Z,9.90
2022-09-13T03:16:08.283Z,9.70
2022-09-13T03:18:46.938Z,9.70
2022-09-13T03:21:25.536Z,9.70
2022-09-13T03:24:03.476Z,9.70
2022-09-13T03:26:38.747Z,9.70
2022-09-13T03:29:31.586Z,9.80
2022-09-13T03:32:16.283Z,10.00
2022-09-13T03:35:12.063Z,9.60
2022-09-13T03:38:01.299Z,9.40
2022-09-13T03:40:54.756Z,9.30
2022-09-13T03:43:24.554Z,9.20
2022-09-13T03:46:01.019Z,9.20
2022-09-13T03:48:28.714Z,9.30
2022-09-13T03:50:55.649Z,9.40
2022-09-13T03:53:28.448Z,9.30
2022-09-13T03:55:55.176Z,9.20
2022-09-13T03:58:25.333Z,9.40
2022-09-13T04:00:53.165Z,9.70
2022-09-13T04:03:19.977Z,9.80
2022-09-13T04:05:46.878Z,9.80
2022-09-13T04:08:13.771Z,10.00
2022-09-13T04:10:40.686Z,9.90
2022-09-13T04:13:07.415Z,9.80
2022-09-13T04:15:34.116Z,9.40
2022-09-13T04:18:01.213Z,9.30
2022-09-13T04:20:29.670Z,9.20
2022-09-13T04:23:00.043Z,9.10
2022-09-13T04:25:27.494Z,9.10
2022-09-13T04:27:55.489Z,9.10
2022-09-13T04:30:23.304Z,9.10
2022-09-13T04:32:52.405Z,9.20
2022-09-13T04:35:19.758Z,9.30
2022-09-13T04:37:48.865Z,9.40
2022-09-13T04:40:15.750Z,9.50
2022-09-13T04:42:44.779Z,9.60
2022-09-13T04:45:11.592Z,9.80
2022-09-13T04:47:38.346Z,9.80
2022-09-13T04:50:05.276Z,9.60
2022-09-13T04:52:32.083Z,9.60
2022-09-13T04:55:01.492Z,9.50
2022-09-13T04:57:29.062Z,9.50
2022-09-13T04:59:55.871Z,9.50
2022-09-13T05:02:22.645Z,9.50
2022-09-13T05:04:49.371Z,9.60
2022-09-13T05:07:16.123Z,9.60
2022-09-13T05:09:42.800Z,9.60
2022-09-13T05:12:09.517Z,9.70
2022-09-13T05:14:36.214Z,9.80
2022-09-13T05:17:02.892Z,9.90
2022-09-13T05:19:29.567Z,9.80
2022-09-13T05:21:56.291Z,10.00
2022-09-13T05:24:22.978Z,10.10
2022-09-13T05:26:49.724Z,10.10
2022-09-13T05:29:16.387Z,10.20
2022-09-13T05:31:43.554Z,10.20
2022-09-13T05:34:14.381Z,10.30
2022-09-13T05:36:42.007Z,10.40
2022-09-13T05:39:36.512Z,10.60
2022-09-13T05:42:02.968Z,10.70
2022-09-13T05:44:29.677Z,10.90
2022-09-13T05:46:56.351Z,10.90
2022-09-13T05:49:23.136Z,10.90
2022-09-13T05:51:49.805Z,10.90
2022-09-13T05:54:16.713Z,10.90
2022-09-13T05:56:43.375Z,11.00
2022-09-13T05:59:14.625Z,11.00
2022-09-13T06:01:41.994Z,11.10
2022-09-13T06:04:08.806Z,11.20
2022-09-13T06:06:36.021Z,11.20
2022-09-13T06:09:03.634Z,11.30
2022-09-13T06:11:30.309Z,11.30
2022-09-13T06:13:56.991Z,11.40
2022-09-13T06:16:23.668Z,11.60
2022-09-13T06:18:50.726Z,11.80
2022-09-13T06:21:27.126Z,12.00
2022-09-13T06:23:55.695Z,12.10
2022-09-13T06:26:24.631Z,12.30
2022-09-13T06:28:53.989Z,12.60
2022-09-13T06:31:22.567Z,12.70
2022-09-13T06:33:49.407Z,12.80
2022-09-13T06:36:18.452Z,13.00
2022-09-13T06:38:46.338Z,13.10
2022-09-13T06:41:19.961Z,13.30
2022-09-13T06:43:47.956Z,13.50
2022-09-13T06:46:19.481Z,13.70
2022-09-13T06:48:48.828Z,13.90
2022-09-13T06:51:18.130Z,14.00
2022-09-13T06:53:46.650Z,14.30
2022-09-13T06:56:19.291Z,14.90
2022-09-13T06:58:48.389Z,16.40
2022-09-13T07:01:17.215Z,19.00
2022-09-13T07:03:55.794Z,20.90
2022-09-13T07:06:24.682Z,22.10
2022-09-13T07:08:52.713Z,22.10
2022-09-13T07:11:21.346Z,23.60
2022-09-13T07:13:55.364Z,24.80
2022-09-13T07:16:25.504Z,25.40
2022-09-13T07:18:56.873Z,26.90
2022-09-13T07:21:24.509Z,28.20
2022-09-13T07:23:52.348Z,29.40
2022-09-13T07:26:19.297Z,30.20
2022-09-13T07:28:49.423Z,30.50
2022-09-13T07:31:22.605Z,30.00
2022-09-13T07:33:55.214Z,31.00
2022-09-13T07:36:22.178Z,31.10
2022-09-13T07:38:49.000Z,31.30
2022-09-13T07:41:21.663Z,31.20
2022-09-13T07:43:48.712Z,31.90
2022-09-13T07:46:17.845Z,31.40
2022-09-13T07:48:46.671Z,30.40
2022-09-13T07:51:18.535Z,29.50
2022-09-13T07:53:46.241Z,29.70
2022-09-13T07:56:15.689Z,30.50
2022-09-13T07:58:47.967Z,30.30
2022-09-13T08:01:20.550Z,30.90
2022-09-13T08:03:57.154Z,31.50
2022-09-13T08:06:25.924Z,31.40
2022-09-13T08:08:53.017Z,31.70
2022-09-13T08:11:32.376Z,31.60
2022-09-13T08:13:59.420Z,30.90
2022-09-13T08:16:28.318Z,28.50
2022-09-13T08:18:57.408Z,27.70
2022-09-13T08:21:25.285Z,28.70
2022-09-13T08:23:56.582Z,29.30
2022-09-13T08:26:23.726Z,28.50
2022-09-13T08:28:55.599Z,26.70
2022-09-13T08:31:23.189Z,25.70
2022-09-13T08:33:50.135Z,25.10
2022-09-13T08:36:18.351Z,25.10
2022-09-13T08:38:49.902Z,24.90
2022-09-13T08:41:38.764Z,24.60
2022-09-13T08:44:08.580Z,24.50
2022-09-13T08:46:43.523Z,24.30
2022-09-13T08:49:35.851Z,24.50
2022-09-13T08:52:31.265Z,24.50
2022-09-13T08:55:12.235Z,24.20
2022-09-13T08:57:51.307Z,24.70
2022-09-13T09:00:26.454Z,24.90
2022-09-13T09:02:59.484Z,25.10
2022-09-13T09:05:30.476Z,25.60
2022-09-13T09:08:13.748Z,26.30
2022-09-13T09:10:46.667Z,26.40
2022-09-13T09:13:28.602Z,26.90
2022-09-13T09:16:07.289Z,27.50
2022-09-13T09:18:45.724Z,27.90
2022-09-13T09:21:18.301Z,28.70
2022-09-13T09:23:51.954Z,29.70
2022-09-13T09:26:30.222Z,31.20
2022-09-13T09:29:09.958Z,32.10
2022-09-13T09:32:03.564Z,32.20
2022-09-13T09:34:55.611Z,33.20
2022-09-13T09:37:25.131Z,33.20
2022-09-13T09:40:01.222Z,31.30
2022-09-13T09:42:32.779Z,32.50
2022-09-13T09:45:33.391Z,32.90
2022-09-13T09:48:07.091Z,33.40
2022-09-13T09:50:39.172Z,34.60
2022-09-13T09:53:14.339Z,34.80
2022-09-13T09:55:45.637Z,34.50
2022-09-13T09:58:16.753Z,34.10
2022-09-13T10:00:57.799Z,34.80
2022-09-13T10:03:27.636Z,34.90
2022-09-13T10:06:30.906Z,35.30
2022-09-13T10:09:03.681Z,35.60
2022-09-13T10:11:49.042Z,35.20
2022-09-13T10:14:29.644Z,35.00
2022-09-13T10:17:12.858Z,35.20
2022-09-13T10:19:39.557Z,35.60
2022-09-13T10:22:12.067Z,35.50
2022-09-13T10:24:39.473Z,35.30
2022-09-13T10:27:39.555Z,35.00
2022-09-13T10:30:07.338Z,34.40
2022-09-13T10:32:34.227Z,33.90
2022-09-13T10:35:16.222Z,31.10
2022-09-13T10:37:44.148Z,29.30
2022-09-13T10:40:25.816Z,28.40
2022-09-13T10:43:05.410Z,28.30
2022-09-13T10:45:32.862Z,28.70
2022-09-13T10:48:09.740Z,29.00
2022-09-13T10:50:37.187Z,28.70
2022-09-13T10:53:24.213Z,28.50
2022-09-13T10:55:54.754Z,28.50
2022-09-13T10:58:21.791Z,28.30
2022-09-13T11:01:00.806Z,28.20
2022-09-13T11:03:39.642Z,28.20
2022-09-13T11:06:37.000Z,28.40
2022-09-13T11:09:09.166Z,28.30
2022-09-13T11:12:09.294Z,27.90
2022-09-13T11:15:01.633Z,28.10
2022-09-13T11:18:00.048Z,28.50
2022-09-13T11:20:42.935Z,28.70
2022-09-13T11:23:22.171Z,28.40
2022-09-13T11:26:05.496Z,28.00
2022-09-13T11:28:57.654Z,27.80
2022-09-13T11:31:46.665Z,28.00
2022-09-13T11:34:20.007Z,27.70
2022-09-13T11:36:53.483Z,27.30
2022-09-13T11:40:01.125Z,27.40
2022-09-13T11:42:53.038Z,27.30
2022-09-13T11:45:42.685Z,27.20
2022-09-13T11:48:24.194Z,27.20
2022-09-13T11:51:11.069Z,27.20
2022-09-13T11:53:53.091Z,26.90
2022-09-13T11:56:40.234Z,26.60
2022-09-13T11:59:28.587Z,26.50
2022-09-13T12:02:00.077Z,26.30
2022-09-13T12:05:23.741Z,26.20
2022-09-13T12:07:57.040Z,26.10
2022-09-13T12:10:29.277Z,26.50
2022-09-13T12:12:58.031Z,26.50
2022-09-13T12:15:42.687Z,26.50
2022-09-13T12:18:34.522Z,26.60
2022-09-13T12:21:20.420Z,26.60
2022-09-13T12:24:02.523Z,26.50
2022-09-13T12:26:46.869Z,26.70
2022-09-13T12:29:49.248Z,26.80
2022-09-13T12:32:18.857Z,26.90
2022-09-13T12:35:09.865Z,26.80
2022-09-13T12:38:01.692Z,26.70
2022-09-13T12:40:47.787Z,26.70
2022-09-13T12:43:20.671Z,26.60
2022-09-13T12:46:05.821Z,26.60
2022-09-13T12:49:00.949Z,26.40
2022-09-13T12:51:56.888Z,26.20
2022-09-13T12:55:04.577Z,26.00
2022-09-13T12:57:50.361Z,25.90
2022-09-13T13:00:31.028Z,25.90
2022-09-13T13:03:13.245Z,25.70
2022-09-13T13:05:54.719Z,25.70
2022-09-13T13:08:29.448Z,26.00
2022-09-13T13:11:03.773Z,25.70
2022-09-13T13:13:44.742Z,25.80
2022-09-13T13:16:34.667Z,25.90
2022-09-13T13:19:04.125Z,25.80
2022-09-13T13:21:40.083Z,25.70
2022-09-13T13:24:16.043Z,25.80
2022-09-13T13:26:42.984Z,25.60
2022-09-13T13:29:26.313Z,25.50
2022-09-13T13:32:10.391Z,25.30
2022-09-13T13:34:44.511Z,25.40
2022-09-13T13:37:11.344Z,25.40
2022-09-13T13:39:46.807Z,25.50
2022-09-13T13:42:24.867Z,25.30
2022-09-13T13:44:55.744Z,25.20
2022-09-13T13:47:22.749Z,25.20
2022-09-13T13:50:13.659Z,25.20
2022-09-13T13:52:52.889Z,25.10
2022-09-13T13:55:43.900Z,25.20
2022-09-13T13:58:17.710Z,25.30
2022-09-13T14:00:52.591Z,25.40
2022-09-13T14:03:33.494Z,25.20
2022-09-13T14:06:38.891Z,25.20
2022-09-13T14:09:30.464Z,25.10
2022-09-13T14:12:19.375Z,25.20
2022-09-13T14:15:03.293Z,25.00
2022-09-13T14:17:37.125Z,25.10
2022-09-13T14:20:12.364Z,25.10
2022-09-13T14:22:42.271Z,25.30
2022-09-13T14:25:30.737Z,25.30
2022-09-13T14:28:03.405Z,25.10
2022-09-13T14:30:39.949Z,25.00
2022-09-13T14:33:19.310Z,25.10
2022-09-13T14:35:47.152Z,25.10
2022-09-13T14:38:21.911Z,24.90
2022-09-13T14:40:58.409Z,25.00
2022-09-13T14:43:28.054Z,24.90
2022-09-13T14:46:18.719Z,25.10
2022-09-13T14:48:51.869Z,25.10
2022-09-13T14:51:22.298Z,24.80
2022-09-13T14:53:57.912Z,24.70
2022-09-13T14:56:44.560Z,24.70
2022-09-13T14:59:31.160Z,24.60
2022-09-13T15:02:05.671Z,24.70
2022-09-13T15:04:33.666Z,25.10
2022-09-13T15:07:17.295Z,25.20
2022-09-13T15:09:46.183Z,25.20
2022-09-13T15:12:26.325Z,25.20
2022-09-13T15:15:28.099Z,25.00
2022-09-13T15:17:59.155Z,24.90
2022-09-13T15:20:45.237Z,24.70
2022-09-13T15:23:24.979Z,24.50
2022-09-13T15:25:59.947Z,24.30
2022-09-13T15:28:32.913Z,24.00
2022-09-13T15:31:01.178Z,23.90
2022-09-13T15:33:34.453Z,23.80
2022-09-13T15:36:20.464Z,24.00
2022-09-13T15:39:08.870Z,24.10
2022-09-13T15:41:38.208Z,24.30
2022-09-13T15:44:09.888Z,24.20
2022-09-13T15:46:54.980Z,24.20
2022-09-13T15:49:27.281Z,24.20
2022-09-13T15:52:05.623Z,24.20
2022-09-13T15:54:35.556Z,24.10
2022-09-13T15:57:06.193Z,23.90
2022-09-13T15:59:33.111Z,23.90
2022-09-13T16:02:17.416Z,23.80
2022-09-13T16:04:44.719Z,23.50
2022-09-13T16:07:13.478Z,23.30
2022-09-13T16:09:40.640Z,23.20
2022-09-13T16:12:07.560Z,23.30
2022-09-13T16:14:34.396Z,23.20
2022-09-13T16:17:13.964Z,23.00
2022-09-13T16:19:41.358Z,23.20
2022-09-13T16:22:12.554Z,23.10
2022-09-13T16:24:39.661Z,23.00
2022-09-13T16:27:06.693Z,22.80
2022-09-13T16:29:33.498Z,22.80
2022-09-13T16:32:01.686Z,22.90
2022-09-13T16:34:28.626Z,22.80
2022-09-13T16:36:55.441Z,22.60
2022-09-13T16:39:22.261Z,22.50
2022-09-13T16:41:49.194Z,22.30
2022-09-13T16:44:16.426Z,22.10
2022-09-13T16:46:43.886Z,22.00
2022-09-13T16:49:11.002Z,21.90
2022-09-13T16:51:38.324Z,21.80
2022-09-13T16:54:05.495Z,21.60
2022-09-13T16:56:33.401Z,21.50
2022-09-13T16:59:09.845Z,21.40
2022-09-13T17:01:38.892Z,21.30
2022-09-13T17:04:08.150Z,21.20
2022-09-13T17:06:36.134Z,21.00
2022-09-13T17:09:08.885Z,20.90
2022-09-13T17:11:41.800Z,20.90
2022-09-13T17:14:12.741Z,20.70
2022-09-13T17:16:44.884Z,20.70
2022-09-13T17:19:18.202Z,20.60
2022-09-13T17:21:53.228Z,20.60
2022-09-13T17:24:21.181Z,20.60
2022-09-13T17:26:49.316Z,20.50
2022-09-13T17:29:20.291Z,20.40
2022-09-13T17:31:48.177Z,20.40
2022-09-13T17:34:16.254Z,20.30
2022-09-13T17:36:46.323Z,20.20
2022-09-13T17:39:19.835Z,20.10
2022-09-13T17:41:48.964Z,20.00
2022-09-13T17:44:28.813Z,19.90
2022-09-13T17:46:59.701Z,19.90
2022-09-13T17:49:36.836Z,19.80
2022-09-13T17:52:04.588Z,19.80
2022-09-13T17:54:32.553Z,19.60
2022-09-13T17:57:00.270Z,19.60
2022-09-13T17:59:27.898Z,19.50
2022-09-13T18:01:56.524Z,19.50
2022-09-13T18:04:23.710Z,19.40
2022-09-13T18:06:52.321Z,19.30
2022-09-13T18:09:19.472Z,19.30
2022-09-13T18:11:46.534Z,19.30
2022-09-13T18:14:18.011Z,19.20
2022-09-13T18:16:45.380Z,19.10
2022-09-13T18:19:13.108Z,19.00
2022-09-13T18:21:40.055Z,19.00
2022-09-13T18:24:07.323Z,18.90
2022-09-13T18:26:34.670Z,18.80
2022-09-13T18:29:13.098Z,18.70
2022-09-13T18:31:41.391Z,18.70
2022-09-13T18:34:13.435Z,18.60
2022-09-13T18:36:41.311Z,18.60
2022-09-13T18:39:18.059Z,18.50
2022-09-13T18:41:46.944Z,18.50
2022-09-13T18:44:15.489Z,18.40
2022-09-13T18:46:43.127Z,18.50
2022-09-13T18:49:10.523Z,18.50
2022-09-13T18:51:39.988Z,18.40
2022-09-13T18:54:08.377Z,18.40
2022-09-13T18:56:35.951Z,18.40
2022-09-13T18:59:06.028Z,18.30
2022-09-13T19:01:35.695Z,18.20
2022-09-13T19:04:06.023Z,18.20
2022-09-13T19:06:42.019Z,18.20
2022-09-13T19:09:10.639Z,18.20
2022-09-13T19:11:48.880Z,18.10
2022-09-13T19:14:27.661Z,18.10
2022-09-13T19:16:56.692Z,18.00
2022-09-13T19:19:25.656Z,18.00
2022-09-13T19:21:52.465Z,18.10
2022-09-13T19:24:20.794Z,18.10
2022-09-13T19:26:50.918Z,17.90
2022-09-13T19:29:20.336Z,17.90
2022-09-13T19:31:49.239Z,17.80
2022-09-13T19:34:18.275Z,17.70
2022-09-13T19:36:47.888Z,17.70
2022-09-13T19:39:14.673Z,17.80
2022-09-13T19:41:41.924Z,17.60
2022-09-13T19:44:10.307Z,17.60
2022-09-13T19:46:39.722Z,17.60
2022-09-13T19:49:08.497Z,17.50
2022-09-13T19:51:48.842Z,17.50
2022-09-13T19:54:20.816Z,17.40
2022-09-13T19:56:47.697Z,17.30
2022-09-13T19:59:16.825Z,17.20
2022-09-13T20:01:45.120Z,17.10
2022-09-13T20:04:18.251Z,17.10
2022-09-13T20:06:49.904Z,17.00
2022-09-13T20:09:45.816Z,17.10
2022-09-13T20:13:30.716Z,17.00
2022-09-13T20:15:57.536Z,16.90
2022-09-13T20:18:25.096Z,16.90
2022-09-13T20:20:56.482Z,17.00
2022-09-13T20:23:24.028Z,16.90
2022-09-13T20:25:50.976Z,16.90
2022-09-13T20:28:17.629Z,16.90
2022-09-13T20:30:53.475Z,17.00
2022-09-13T20:33:20.470Z,17.00
2022-09-13T20:35:47.265Z,16.90
2022-09-13T20:38:13.948Z,16.90
2022-09-13T20:40:40.656Z,16.90
2022-09-13T20:43:08.025Z,16.80
2022-09-13T20:45:34.685Z,16.70
2022-09-13T20:48:01.527Z,16.90
2022-09-13T20:50:28.888Z,16.70
2022-09-13T20:52:57.176Z,16.70
2022-09-13T20:55:24.841Z,16.90
2022-09-13T20:57:51.584Z,17.00
2022-09-13T21:00:18.332Z,17.00
2022-09-13T21:02:45.060Z,16.80
2022-09-13T21:05:12.494Z,16.80
2022-09-13T21:07:57.678Z,16.70
2022-09-13T21:10:26.000Z,16.60
2022-09-13T21:12:53.113Z,16.50
2022-09-13T21:15:20.393Z,16.50
2022-09-13T21:17:47.590Z,16.60
2022-09-13T21:20:14.854Z,16.70
2022-09-13T21:22:42.451Z,16.80
2022-09-13T21:25:09.334Z,16.60
2022-09-13T21:27:36.008Z,16.50
2022-09-13T21:30:03.004Z,16.60
2022-09-13T21:32:36.604Z,16.80
2022-09-13T21:35:03.522Z,16.70
2022-09-13T21:37:30.222Z,16.60
2022-09-13T21:39:56.951Z,16.50
2022-09-13T21:42:23.703Z,16.50
2022-09-13T21:44:50.528Z,16.50
2022-09-13T21:47:17.234Z,16.50
2022-09-13T21:49:45.207Z,16.30
2022-09-13T21:52:12.470Z,16.30
2022-09-13T21:54:39.160Z,16.40
2022-09-13T21:57:06.248Z,16.40
2022-09-13T21:59:32.986Z,16.40
2022-09-13T22:02:00.783Z,16.50
2022-09-13T22:04:27.746Z,16.70
2022-09-13T22:06:57.565Z,16.60
2022-09-13T22:09:27.025Z,16.50
2022-09-13T22:11:56.331Z,16.60
2022-09-13T22:14:23.237Z,16.60
2022-09-13T22:16:52.382Z,16.80
2022-09-13T22:19:26.028Z,16.90
2022-09-13T22:21:55.932Z,16.90
2022-09-13T22:24:24.554Z,16.70
2022-09-13T22:26:52.954Z,16.70
2022-09-13T22:29:20.493Z,16.70
2022-09-13T22:31:49.608Z,16.80
2022-09-13T22:34:22.481Z,16.90
2022-09-13T22:36:49.607Z,16.90
2022-09-13T22:39:17.416Z,16.70
2022-09-13T22:41:45.253Z,16.70
2022-09-13T22:44:11.978Z,16.70
2022-09-13T22:46:41.010Z,16.80
2022-09-13T22:49:11.304Z,16.70
2022-09-13T22:51:37.951Z,16.70
2022-09-13T22:54:07.175Z,16.60
2022-09-13T22:56:35.784Z,16.60
2022-09-13T22:59:08.528Z,16.60
2022-09-13T23:01:36.196Z,16.60
2022-09-13T23:04:03.394Z,16.70
2022-09-13T23:06:31.310Z,16.60
2022-09-13T23:09:01.165Z,16.50
2022-09-13T23:11:31.004Z,16.60
2022-09-13T23:14:00.677Z,16.70
2022-09-13T23:16:30.202Z,16.80
2022-09-13T23:18:57.491Z,16.70
2022-09-13T23:21:28.136Z,16.70
2022-09-13T23:23:55.660Z,16.60
2022-09-13T23:26:23.441Z,16.50
2022-09-13T23:28:58.811Z,16.60
2022-09-13T23:31:34.816Z,16.70
2022-09-13T23:34:03.713Z,16.60
2022-09-13T23:36:34.293Z,16.50
2022-09-13T23:39:03.542Z,16.50
2022-09-13T23:41:31.134Z,16.40
2022-09-13T23:43:57.889Z,16.50
2022-09-13T23:46:24.881Z,16.60
2022-09-13T23:48:51.602Z,16.60
2022-09-13T23:51:23.801Z,16.60
2022-09-13T23:53:52.104Z,16.60
2022-09-13T23:56:19.405Z,16.50
2022-09-13T23:58:46.531Z,16.50
